sensor_id;sensor_type;location;lat;lon;timestamp;P1;durP1;ratioP1;P2;durP2;ratioP2
66437;SDS011;54537;47.972;11.662;2023-10-19T00:00:16;22.70;;;9.82;;
66437;SDS011;54537;47.972;11.662;2023-10-19T00:02:45;24.83;;;10.38;;
66437;SDS011;54537;47.972;11.662;2023-10-19T00:05:13;23.65;;;10.20;;
66437;SDS011;54537;47.972;11.662;2023-10-19T00:07:41;24.85;;;10.55;;
66437;SDS011;54537;47.972;11.662;2023-10-19T00:10:08;23.55;;;11.27;;
66437;SDS011;54537;47.972;11.662;2023-10-19T00:12:34;23.00;;;10.45;;
66437;SDS011;54537;47.972;11.662;2023-10-19T00:15:01;21.55;;;10.00;;
66437;SDS011;54537;47.972;11.662;2023-10-19T00:17:30;23.67;;;10.00;;
66437;SDS011;54537;47.972;11.662;2023-10-19T00:19:58;21.40;;;10.40;;
66437;SDS011;54537;47.972;11.662;2023-10-19T00:22:44;21.73;;;10.43;;
66437;SDS011;54537;47.972;11.662;2023-10-19T00:25:11;20.88;;;9.75;;
66437;SDS011;54537;47.972;11.662;2023-10-19T00:27:38;22.95;;;10.45;;
66437;SDS011;54537;47.972;11.662;2023-10-19T00:30:07;21.83;;;9.70;;
66437;SDS011;54537;47.972;11.662;2023-10-19T00:32:37;21.83;;;10.38;;
66437;SDS011;54537;47.972;11.662;2023-10-19T00:35:04;23.92;;;10.50;;
66437;SDS011;54537;47.972;11.662;2023-10-19T00:37:46;22.55;;;10.40;;
66437;SDS011;54537;47.972;11.662;2023-10-19T00:40:13;22.00;;;9.93;;
66437;SDS011;54537;47.972;11.662;2023-10-19T00:42:44;21.63;;;9.55;;
66437;SDS011;54537;47.972;11.662;2023-10-19T00:45:18;23.13;;;10.63;;
66437;SDS011;54537;47.972;11.662;2023-10-19T00:47:51;23.15;;;10.48;;
66437;SDS011;54537;47.972;11.662;2023-10-19T00:50:18;21.38;;;10.38;;
66437;SDS011;54537;47.972;11.662;2023-10-19T00:52:47;19.02;;;10.00;;
66437;SDS011;54537;47.972;11.662;2023-10-19T00:55:15;20.00;;;9.52;;
66437;SDS011;54537;47.972;11.662;2023-10-19T00:57:44;18.33;;;9.73;;
66437;SDS011;54537;47.972;11.662;2023-10-19T01:00:14;20.42;;;9.27;;
66437;SDS011;54537;47.972;11.662;2023-10-19T01:02:47;21.23;;;9.27;;
66437;SDS011;54537;47.972;11.662;2023-10-19T01:05:19;19.27;;;9.13;;
66437;SDS011;54537;47.972;11.662;2023-10-19T01:07:47;20.33;;;9.18;;
66437;SDS011;54537;47.972;11.662;2023-10-19T01:10:21;20.08;;;9.27;;
66437;SDS011;54537;47.972;11.662;2023-10-19T01:12:48;17.95;;;9.30;;
66437;SDS011;54537;47.972;11.662;2023-10-19T01:15:16;18.50;;;9.05;;
66437;SDS011;54537;47.972;11.662;2023-10-19T01:17:49;20.90;;;8.88;;
66437;SDS011;54537;47.972;11.662;2023-10-19T01:20:21;20.17;;;8.88;;
66437;SDS011;54537;47.972;11.662;2023-10-19T01:22:50;16.10;;;8.45;;
66437;SDS011;54537;47.972;11.662;2023-10-19T01:25:30;16.52;;;8.20;;
66437;SDS011;54537;47.972;11.662;2023-10-19T01:28:00;20.60;;;8.40;;
66437;SDS011;54537;47.972;11.662;2023-10-19T01:30:32;17.42;;;8.43;;
66437;SDS011;54537;47.972;11.662;2023-10-19T01:32:59;15.90;;;7.50;;
66437;SDS011;54537;47.972;11.662;2023-10-19T01:35:25;15.63;;;6.88;;
66437;SDS011;54537;47.972;11.662;2023-10-19T01:38:13;11.75;;;6.43;;
66437;SDS011;54537;47.972;11.662;2023-10-19T01:40:40;12.27;;;5.93;;
66437;SDS011;54537;47.972;11.662;2023-10-19T01:43:11;13.18;;;6.15;;
66437;SDS011;54537;47.972;11.662;2023-10-19T01:45:45;11.88;;;6.22;;
66437;SDS011;54537;47.972;11.662;2023-10-19T01:48:11;15.73;;;6.65;;
66437;SDS011;54537;47.972;11.662;2023-10-19T01:50:38;11.77;;;6.22;;
66437;SDS011;54537;47.972;11.662;2023-10-19T01:53:05;10.85;;;5.80;;
66437;SDS011;54537;47.972;11.662;2023-10-19T01:55:39;12.07;;;6.05;;
66437;SDS011;54537;47.972;11.662;2023-10-19T01:58:05;14.30;;;6.05;;
66437;SDS011;54537;47.972;11.662;2023-10-19T02:00:31;12.73;;;6.05;;
66437;SDS011;54537;47.972;11.662;2023-10-19T02:03:02;12.57;;;5.72;;
66437;SDS011;54537;47.972;11.662;2023-10-19T02:05:32;12.25;;;6.10;;
66437;SDS011;54537;47.972;11.662;2023-10-19T02:08:04;12.43;;;5.53;;
66437;SDS011;54537;47.972;11.662;2023-10-19T02:10:32;11.57;;;5.70;;
66437;SDS011;54537;47.972;11.662;2023-10-19T02:13:00;11.65;;;5.43;;
66437;SDS011;54537;47.972;11.662;2023-10-19T02:15:31;12.38;;;4.72;;
66437;SDS011;54537;47.972;11.662;2023-10-19T02:17:57;11.43;;;4.75;;
66437;SDS011;54537;47.972;11.662;2023-10-19T02:20:26;10.02;;;5.05;;
66437;SDS011;54537;47.972;11.662;2023-10-19T02:22:52;9.60;;;4.68;;
66437;SDS011;54537;47.972;11.662;2023-10-19T02:25:20;9.05;;;4.47;;
66437;SDS011;54537;47.972;11.662;2023-10-19T02:27:46;10.50;;;4.57;;
66437;SDS011;54537;47.972;11.662;2023-10-19T02:30:14;10.60;;;4.90;;
66437;SDS011;54537;47.972;11.662;2023-10-19T02:32:42;10.77;;;4.70;;
66437;SDS011;54537;47.972;11.662;2023-10-19T02:35:09;9.32;;;4.45;;
66437;SDS011;54537;47.972;11.662;2023-10-19T02:37:35;10.32;;;4.63;;
66437;SDS011;54537;47.972;11.662;2023-10-19T02:40:04;10.27;;;5.05;;
66437;SDS011;54537;47.972;11.662;2023-10-19T02:42:37;8.82;;;4.97;;
66437;SDS011;54537;47.972;11.662;2023-10-19T02:45:04;10.65;;;4.50;;
66437;SDS011;54537;47.972;11.662;2023-10-19T02:47:31;8.25;;;4.03;;
66437;SDS011;54537;47.972;11.662;2023-10-19T02:49:58;7.22;;;3.33;;
66437;SDS011;54537;47.972;11.662;2023-10-19T02:52:24;6.15;;;3.10;;
66437;SDS011;54537;47.972;11.662;2023-10-19T02:54:52;9.10;;;3.85;;
66437;SDS011;54537;47.972;11.662;2023-10-19T02:57:22;10.05;;;4.50;;
66437;SDS011;54537;47.972;11.662;2023-10-19T02:59:48;10.02;;;4.68;;
66437;SDS011;54537;47.972;11.662;2023-10-19T03:02:15;9.63;;;4.22;;
66437;SDS011;54537;47.972;11.662;2023-10-19T03:04:44;8.65;;;4.28;;
66437;SDS011;54537;47.972;11.662;2023-10-19T03:07:10;11.02;;;4.50;;
66437;SDS011;54537;47.972;11.662;2023-10-19T03:09:37;9.23;;;4.60;;
66437;SDS011;54537;47.972;11.662;2023-10-19T03:12:05;9.60;;;4.25;;
66437;SDS011;54537;47.972;11.662;2023-10-19T03:14:35;9.82;;;4.03;;
66437;SDS011;54537;47.972;11.662;2023-10-19T03:17:02;9.45;;;4.55;;
66437;SDS011;54537;47.972;11.662;2023-10-19T03:19:33;10.55;;;5.18;;
66437;SDS011;54537;47.972;11.662;2023-10-19T03:22:01;10.00;;;5.30;;
66437;SDS011;54537;47.972;11.662;2023-10-19T03:24:31;12.05;;;5.85;;
66437;SDS011;54537;47.972;11.662;2023-10-19T03:27:00;14.90;;;7.10;;
66437;SDS011;54537;47.972;11.662;2023-10-19T03:29:33;14.07;;;7.05;;
66437;SDS011;54537;47.972;11.662;2023-10-19T03:32:03;12.27;;;5.60;;
66437;SDS011;54537;47.972;11.662;2023-10-19T03:34:30;13.88;;;5.78;;
66437;SDS011;54537;47.972;11.662;2023-10-19T03:36:57;10.95;;;5.75;;
66437;SDS011;54537;47.972;11.662;2023-10-19T03:39:30;11.13;;;5.65;;
66437;SDS011;54537;47.972;11.662;2023-10-19T03:41:59;9.95;;;5.00;;
66437;SDS011;54537;47.972;11.662;2023-10-19T03:44:26;10.32;;;4.75;;
66437;SDS011;54537;47.972;11.662;2023-10-19T03:47:04;11.18;;;4.60;;
66437;SDS011;54537;47.972;11.662;2023-10-19T03:49:36;10.02;;;4.55;;
66437;SDS011;54537;47.972;11.662;2023-10-19T03:52:04;10.43;;;4.60;;
66437;SDS011;54537;47.972;11.662;2023-10-19T03:54:46;10.82;;;4.82;;
66437;SDS011;54537;47.972;11.662;2023-10-19T03:57:13;7.97;;;3.95;;
66437;SDS011;54537;47.972;11.662;2023-10-19T03:59:44;7.68;;;3.90;;
66437;SDS011;54537;47.972;11.662;2023-10-19T04:02:12;12.93;;;4.07;;
66437;SDS011;54537;47.972;11.662;2023-10-19T04:04:40;8.15;;;3.85;;
66437;SDS011;54537;47.972;11.662;2023-10-19T04:07:08;8.60;;;4.07;;
66437;SDS011;54537;47.972;11.662;2023-10-19T04:09:43;10.35;;;4.75;;
66437;SDS011;54537;47.972;11.662;2023-10-19T04:12:27;8.77;;;4.18;;
66437;SDS011;54537;47.972;11.662;2023-10-19T04:14:55;8.43;;;4.00;;
66437;SDS011;54537;47.972;11.662;2023-10-19T04:17:22;8.02;;;3.92;;
66437;SDS011;54537;47.972;11.662;2023-10-19T04:19:50;6.78;;;3.78;;
66437;SDS011;54537;47.972;11.662;2023-10-19T04:22:18;7.18;;;3.50;;
66437;SDS011;54537;47.972;11.662;2023-10-19T04:24:48;7.85;;;2.90;;
66437;SDS011;54537;47.972;11.662;2023-10-19T04:27:14;5.30;;;2.75;;
66437;SDS011;54537;47.972;11.662;2023-10-19T04:29:42;6.13;;;2.50;;
66437;SDS011;54537;47.972;11.662;2023-10-19T04:32:10;6.47;;;2.45;;
66437;SDS011;54537;47.972;11.662;2023-10-19T04:34:39;7.20;;;3.30;;
66437;SDS011;54537;47.972;11.662;2023-10-19T04:37:05;9.77;;;4.22;;
66437;SDS011;54537;47.972;11.662;2023-10-19T04:39:33;9.85;;;5.05;;
66437;SDS011;54537;47.972;11.662;2023-10-19T04:42:01;7.93;;;3.03;;
66437;SDS011;54537;47.972;11.662;2023-10-19T04:44:27;7.90;;;3.42;;
66437;SDS011;54537;47.972;11.662;2023-10-19T04:46:57;8.90;;;4.13;;
66437;SDS011;54537;47.972;11.662;2023-10-19T04:49:23;9.00;;;4.22;;
66437;SDS011;54537;47.972;11.662;2023-10-19T04:51:50;8.55;;;4.60;;
66437;SDS011;54537;47.972;11.662;2023-10-19T04:54:16;7.00;;;3.88;;
66437;SDS011;54537;47.972;11.662;2023-10-19T04:56:43;11.05;;;4.20;;
66437;SDS011;54537;47.972;11.662;2023-10-19T04:59:09;8.18;;;4.05;;
66437;SDS011;54537;47.972;11.662;2023-10-19T05:01:36;7.07;;;4.05;;
66437;SDS011;54537;47.972;11.662;2023-10-19T05:04:05;8.90;;;3.28;;
66437;SDS011;54537;47.972;11.662;2023-10-19T05:06:31;5.00;;;2.53;;
66437;SDS011;54537;47.972;11.662;2023-10-19T05:08:58;6.07;;;2.60;;
66437;SDS011;54537;47.972;11.662;2023-10-19T05:11:24;8.98;;;2.22;;
66437;SDS011;54537;47.972;11.662;2023-10-19T05:13:51;4.28;;;2.10;;
66437;SDS011;54537;47.972;11.662;2023-10-19T05:16:17;4.60;;;2.22;;
66437;SDS011;54537;47.972;11.662;2023-10-19T05:18:44;9.77;;;2.70;;
66437;SDS011;54537;47.972;11.662;2023-10-19T05:21:12;9.05;;;3.22;;
66437;SDS011;54537;47.972;11.662;2023-10-19T05:23:38;6.90;;;2.72;;
66437;SDS011;54537;47.972;11.662;2023-10-19T05:26:05;5.60;;;2.42;;
66437;SDS011;54537;47.972;11.662;2023-10-19T05:28:32;6.30;;;2.40;;
66437;SDS011;54537;47.972;11.662;2023-10-19T05:30:59;9.35;;;2.75;;
66437;SDS011;54537;47.972;11.662;2023-10-19T05:33:26;5.57;;;2.25;;
66437;SDS011;54537;47.972;11.662;2023-10-19T05:35:54;4.65;;;2.47;;
66437;SDS011;54537;47.972;11.662;2023-10-19T05:38:22;7.95;;;2.60;;
66437;SDS011;54537;47.972;11.662;2023-10-19T05:40:49;6.65;;;2.33;;
66437;SDS011;54537;47.972;11.662;2023-10-19T05:43:17;5.55;;;2.47;;
66437;SDS011;54537;47.972;11.662;2023-10-19T05:45:44;8.40;;;2.95;;
66437;SDS011;54537;47.972;11.662;2023-10-19T05:48:15;4.47;;;2.20;;
66437;SDS011;54537;47.972;11.662;2023-10-19T05:50:41;6.05;;;2.25;;
66437;SDS011;54537;47.972;11.662;2023-10-19T05:53:08;4.10;;;2.08;;
66437;SDS011;54537;47.972;11.662;2023-10-19T05:55:36;8.35;;;2.20;;
66437;SDS011;54537;47.972;11.662;2023-10-19T05:58:04;6.25;;;2.40;;
66437;SDS011;54537;47.972;11.662;2023-10-19T06:00:31;6.05;;;2.15;;
66437;SDS011;54537;47.972;11.662;2023-10-19T06:02:57;6.55;;;2.40;;
66437;SDS011;54537;47.972;11.662;2023-10-19T06:05:24;11.43;;;3.75;;
66437;SDS011;54537;47.972;11.662;2023-10-19T06:07:51;17.02;;;6.45;;
66437;SDS011;54537;47.972;11.662;2023-10-19T06:10:18;24.20;;;7.88;;
66437;SDS011;54537;47.972;11.662;2023-10-19T06:12:48;20.38;;;9.60;;
66437;SDS011;54537;47.972;11.662;2023-10-19T06:15:16;22.88;;;11.38;;
66437;SDS011;54537;47.972;11.662;2023-10-19T06:17:43;14.52;;;7.28;;
66437;SDS011;54537;47.972;11.662;2023-10-19T06:20:11;7.85;;;3.50;;
66437;SDS011;54537;47.972;11.662;2023-10-19T06:22:45;5.57;;;2.40;;
66437;SDS011;54537;47.972;11.662;2023-10-19T06:25:15;4.88;;;2.10;;
66437;SDS011;54537;47.972;11.662;2023-10-19T06:27:43;6.20;;;2.05;;
66437;SDS011;54537;47.972;11.662;2023-10-19T06:30:11;6.60;;;2.55;;
66437;SDS011;54537;47.972;11.662;2023-10-19T06:32:42;5.05;;;2.00;;
66437;SDS011;54537;47.972;11.662;2023-10-19T06:35:10;4.78;;;2.17;;
66437;SDS011;54537;47.972;11.662;2023-10-19T06:37:37;6.00;;;2.53;;
66437;SDS011;54537;47.972;11.662;2023-10-19T06:40:04;5.10;;;2.00;;
66437;SDS011;54537;47.972;11.662;2023-10-19T06:42:32;6.72;;;2.05;;
66437;SDS011;54537;47.972;11.662;2023-10-19T06:45:00;9.48;;;2.22;;
66437;SDS011;54537;47.972;11.662;2023-10-19T06:47:28;7.00;;;2.22;;
66437;SDS011;54537;47.972;11.662;2023-10-19T06:49:55;6.15;;;2.28;;
66437;SDS011;54537;47.972;11.662;2023-10-19T06:52:22;5.78;;;2.38;;
66437;SDS011;54537;47.972;11.662;2023-10-19T06:54:48;4.60;;;1.92;;
66437;SDS011;54537;47.972;11.662;2023-10-19T06:57:16;4.80;;;1.70;;
66437;SDS011;54537;47.972;11.662;2023-10-19T06:59:42;4.35;;;1.67;;
66437;SDS011;54537;47.972;11.662;2023-10-19T07:02:09;6.57;;;1.50;;
66437;SDS011;54537;47.972;11.662;2023-10-19T07:04:35;5.10;;;1.80;;
66437;SDS011;54537;47.972;11.662;2023-10-19T07:07:03;5.53;;;1.67;;
66437;SDS011;54537;47.972;11.662;2023-10-19T07:09:29;5.05;;;1.70;;
66437;SDS011;54537;47.972;11.662;2023-10-19T07:11:56;3.65;;;1.80;;
66437;SDS011;54537;47.972;11.662;2023-10-19T07:14:23;6.85;;;1.90;;
66437;SDS011;54537;47.972;11.662;2023-10-19T07:16:50;12.18;;;3.97;;
66437;SDS011;54537;47.972;11.662;2023-10-19T07:19:17;24.25;;;6.53;;
66437;SDS011;54537;47.972;11.662;2023-10-19T07:21:46;15.88;;;4.63;;
66437;SDS011;54537;47.972;11.662;2023-10-19T07:24:18;11.25;;;3.95;;
66437;SDS011;54537;47.972;11.662;2023-10-19T07:26:48;10.05;;;3.45;;
66437;SDS011;54537;47.972;11.662;2023-10-19T07:29:28;11.27;;;4.20;;
66437;SDS011;54537;47.972;11.662;2023-10-19T07:31:55;4.72;;;2.13;;
66437;SDS011;54537;47.972;11.662;2023-10-19T07:34:23;5.28;;;1.70;;
66437;SDS011;54537;47.972;11.662;2023-10-19T07:36:54;5.32;;;1.90;;
66437;SDS011;54537;47.972;11.662;2023-10-19T07:39:23;3.70;;;1.92;;
66437;SDS011;54537;47.972;11.662;2023-10-19T07:41:50;6.05;;;1.80;;
66437;SDS011;54537;47.972;11.662;2023-10-19T07:44:17;5.72;;;1.95;;
66437;SDS011;54537;47.972;11.662;2023-10-19T07:46:43;11.30;;;2.65;;
66437;SDS011;54537;47.972;11.662;2023-10-19T07:49:10;8.07;;;2.50;;
66437;SDS011;54537;47.972;11.662;2023-10-19T07:51:39;4.10;;;1.80;;
66437;SDS011;54537;47.972;11.662;2023-10-19T07:54:08;4.90;;;1.92;;
66437;SDS011;54537;47.972;11.662;2023-10-19T07:56:35;5.53;;;1.75;;
66437;SDS011;54537;47.972;11.662;2023-10-19T07:59:02;5.45;;;2.05;;
66437;SDS011;54537;47.972;11.662;2023-10-19T08:01:29;4.85;;;2.30;;
66437;SDS011;54537;47.972;11.662;2023-10-19T08:03:56;8.38;;;2.60;;
66437;SDS011;54537;47.972;11.662;2023-10-19T08:06:23;5.97;;;2.10;;
66437;SDS011;54537;47.972;11.662;2023-10-19T08:08:51;4.22;;;1.83;;
66437;SDS011;54537;47.972;11.662;2023-10-19T08:11:19;4.38;;;1.60;;
66437;SDS011;54537;47.972;11.662;2023-10-19T08:13:46;6.03;;;1.70;;
66437;SDS011;54537;47.972;11.662;2023-10-19T08:16:14;3.88;;;1.63;;
66437;SDS011;54537;47.972;11.662;2023-10-19T08:18:41;4.60;;;1.75;;
66437;SDS011;54537;47.972;11.662;2023-10-19T08:21:08;3.63;;;1.70;;
66437;SDS011;54537;47.972;11.662;2023-10-19T08:23:34;5.28;;;1.58;;
66437;SDS011;54537;47.972;11.662;2023-10-19T08:26:02;2.45;;;1.52;;
66437;SDS011;54537;47.972;11.662;2023-10-19T08:28:32;3.70;;;1.60;;
66437;SDS011;54537;47.972;11.662;2023-10-19T08:30:58;4.05;;;1.77;;
66437;SDS011;54537;47.972;11.662;2023-10-19T08:33:26;4.35;;;1.48;;
66437;SDS011;54537;47.972;11.662;2023-10-19T08:35:55;6.15;;;1.70;;
66437;SDS011;54537;47.972;11.662;2023-10-19T08:38:22;4.70;;;1.85;;
66437;SDS011;54537;47.972;11.662;2023-10-19T08:40:49;5.40;;;1.88;;
66437;SDS011;54537;47.972;11.662;2023-10-19T08:43:16;4.25;;;1.70;;
66437;SDS011;54537;47.972;11.662;2023-10-19T08:45:45;4.45;;;1.60;;
66437;SDS011;54537;47.972;11.662;2023-10-19T08:48:12;2.88;;;1.35;;
66437;SDS011;54537;47.972;11.662;2023-10-19T08:50:39;4.82;;;1.60;;
66437;SDS011;54537;47.972;11.662;2023-10-19T08:53:06;4.32;;;1.50;;
66437;SDS011;54537;47.972;11.662;2023-10-19T08:55:34;5.85;;;1.70;;
66437;SDS011;54537;47.972;11.662;2023-10-19T08:58:00;5.45;;;1.55;;
66437;SDS011;54537;47.972;11.662;2023-10-19T09:00:38;4.15;;;1.88;;
66437;SDS011;54537;47.972;11.662;2023-10-19T09:03:13;4.05;;;1.70;;
66437;SDS011;54537;47.972;11.662;2023-10-19T09:05:41;4.68;;;1.75;;
66437;SDS011;54537;47.972;11.662;2023-10-19T09:08:09;6.50;;;1.73;;
66437;SDS011;54537;47.972;11.662;2023-10-19T09:10:40;5.22;;;1.92;;
66437;SDS011;54537;47.972;11.662;2023-10-19T09:13:08;5.25;;;1.90;;
66437;SDS011;54537;47.972;11.662;2023-10-19T09:15:35;5.15;;;1.80;;
66437;SDS011;54537;47.972;11.662;2023-10-19T09:18:12;3.97;;;1.70;;
66437;SDS011;54537;47.972;11.662;2023-10-19T09:20:40;4.68;;;2.22;;
66437;SDS011;54537;47.972;11.662;2023-10-19T09:23:17;6.50;;;2.03;;
66437;SDS011;54537;47.972;11.662;2023-10-19T09:25:45;8.00;;;1.92;;
66437;SDS011;54537;47.972;11.662;2023-10-19T09:28:12;3.55;;;1.60;;
66437;SDS011;54537;47.972;11.662;2023-10-19T09:30:39;4.43;;;1.35;;
66437;SDS011;54537;47.972;11.662;2023-10-19T09:33:06;6.07;;;1.92;;
66437;SDS011;54537;47.972;11.662;2023-10-19T09:35:35;4.50;;;2.10;;
66437;SDS011;54537;47.972;11.662;2023-10-19T09:38:03;2.40;;;1.33;;
66437;SDS011;54537;47.972;11.662;2023-10-19T09:40:31;3.97;;;1.40;;
66437;SDS011;54537;47.972;11.662;2023-10-19T09:42:58;3.78;;;1.90;;
66437;SDS011;54537;47.972;11.662;2023-10-19T09:45:26;4.25;;;1.77;;
66437;SDS011;54537;47.972;11.662;2023-10-19T09:47:54;6.05;;;1.98;;
66437;SDS011;54537;47.972;11.662;2023-10-19T09:50:21;4.20;;;1.60;;
66437;SDS011;54537;47.972;11.662;2023-10-19T09:52:49;5.80;;;1.70;;
66437;SDS011;54537;47.972;11.662;2023-10-19T09:55:17;7.38;;;1.90;;
66437;SDS011;54537;47.972;11.662;2023-10-19T09:57:48;7.68;;;2.42;;
66437;SDS011;54537;47.972;11.662;2023-10-19T10:00:18;4.78;;;1.92;;
66437;SDS011;54537;47.972;11.662;2023-10-19T10:02:48;3.45;;;1.60;;
66437;SDS011;54537;47.972;11.662;2023-10-19T10:08:33;4.68;;;1.70;;
66437;SDS011;54537;47.972;11.662;2023-10-19T10:11:00;8.68;;;2.03;;
66437;SDS011;54537;47.972;11.662;2023-10-19T10:13:40;5.70;;;1.77;;
66437;SDS011;54537;47.972;11.662;2023-10-19T10:16:07;8.30;;;1.70;;
66437;SDS011;54537;47.972;11.662;2023-10-19T10:18:34;7.00;;;1.80;;
66437;SDS011;54537;47.972;11.662;2023-10-19T10:21:07;4.72;;;1.92;;
66437;SDS011;54537;47.972;11.662;2023-10-19T10:23:41;2.95;;;1.70;;
66437;SDS011;54537;47.972;11.662;2023-10-19T10:26:09;4.68;;;1.95;;
66437;SDS011;54537;47.972;11.662;2023-10-19T10:28:36;4.30;;;1.90;;
66437;SDS011;54537;47.972;11.662;2023-10-19T10:31:07;5.90;;;1.77;;
66437;SDS011;54537;47.972;11.662;2023-10-19T10:33:40;3.10;;;1.80;;
66437;SDS011;54537;47.972;11.662;2023-10-19T10:36:07;4.75;;;1.92;;
66437;SDS011;54537;47.972;11.662;2023-10-19T10:38:35;5.68;;;1.80;;
66437;SDS011;54537;47.972;11.662;2023-10-19T10:41:03;5.57;;;1.65;;
66437;SDS011;54537;47.972;11.662;2023-10-19T10:43:30;3.83;;;1.80;;
66437;SDS011;54537;47.972;11.662;2023-10-19T10:46:03;3.72;;;1.65;;
66437;SDS011;54537;47.972;11.662;2023-10-19T10:48:30;3.47;;;1.33;;
66437;SDS011;54537;47.972;11.662;2023-10-19T10:50:57;8.30;;;1.80;;
66437;SDS011;54537;47.972;11.662;2023-10-19T10:53:23;4.10;;;1.60;;
66437;SDS011;54537;47.972;11.662;2023-10-19T10:55:51;5.88;;;1.80;;
66437;SDS011;54537;47.972;11.662;2023-10-19T10:58:20;3.28;;;1.60;;
66437;SDS011;54537;47.972;11.662;2023-10-19T11:00:46;4.63;;;1.42;;
66437;SDS011;54537;47.972;11.662;2023-10-19T11:03:16;5.50;;;1.67;;
66437;SDS011;54537;47.972;11.662;2023-10-19T11:05:42;4.35;;;1.52;;
66437;SDS011;54537;47.972;11.662;2023-10-19T11:08:11;3.95;;;1.73;;
66437;SDS011;54537;47.972;11.662;2023-10-19T11:10:39;3.83;;;1.40;;
66437;SDS011;54537;47.972;11.662;2023-10-19T11:13:07;4.10;;;1.60;;
66437;SDS011;54537;47.972;11.662;2023-10-19T11:15:36;5.05;;;1.63;;
66437;SDS011;54537;47.972;11.662;2023-10-19T11:18:04;2.92;;;1.52;;
66437;SDS011;54537;47.972;11.662;2023-10-19T11:20:32;4.55;;;1.60;;
66437;SDS011;54537;47.972;11.662;2023-10-19T11:22:59;4.63;;;1.90;;
66437;SDS011;54537;47.972;11.662;2023-10-19T11:25:26;3.35;;;1.33;;
66437;SDS011;54537;47.972;11.662;2023-10-19T11:27:54;4.53;;;1.20;;
66437;SDS011;54537;47.972;11.662;2023-10-19T11:30:24;3.55;;;1.35;;
66437;SDS011;54537;47.972;11.662;2023-10-19T11:32:52;5.57;;;1.45;;
66437;SDS011;54537;47.972;11.662;2023-10-19T11:35:22;5.95;;;1.50;;
66437;SDS011;54537;47.972;11.662;2023-10-19T11:37:50;4.45;;;1.42;;
66437;SDS011;54537;47.972;11.662;2023-10-19T11:40:17;6.90;;;1.60;;
66437;SDS011;54537;47.972;11.662;2023-10-19T11:42:44;4.85;;;1.50;;
66437;SDS011;54537;47.972;11.662;2023-10-19T11:45:12;5.32;;;1.75;;
66437;SDS011;54537;47.972;11.662;2023-10-19T11:47:38;3.17;;;1.48;;
66437;SDS011;54537;47.972;11.662;2023-10-19T11:50:06;2.53;;;1.42;;
66437;SDS011;54537;47.972;11.662;2023-10-19T11:52:33;3.22;;;1.45;;
66437;SDS011;54537;47.972;11.662;2023-10-19T11:55:00;4.28;;;1.30;;
66437;SDS011;54537;47.972;11.662;2023-10-19T11:57:27;2.65;;;1.10;;
66437;SDS011;54537;47.972;11.662;2023-10-19T11:59:54;2.45;;;0.90;;
66437;SDS011;54537;47.972;11.662;2023-10-19T12:02:22;6.13;;;1.25;;
66437;SDS011;54537;47.972;11.662;2023-10-19T12:04:49;5.13;;;1.30;;
66437;SDS011;54537;47.972;11.662;2023-10-19T12:07:17;3.45;;;1.30;;
66437;SDS011;54537;47.972;11.662;2023-10-19T12:09:44;3.03;;;1.50;;
66437;SDS011;54537;47.972;11.662;2023-10-19T12:12:11;2.67;;;1.17;;
66437;SDS011;54537;47.972;11.662;2023-10-19T12:14:38;4.07;;;1.33;;
66437;SDS011;54537;47.972;11.662;2023-10-19T12:17:05;4.35;;;1.05;;
66437;SDS011;54537;47.972;11.662;2023-10-19T12:19:32;3.22;;;1.30;;
66437;SDS011;54537;47.972;11.662;2023-10-19T12:21:59;2.83;;;1.10;;
66437;SDS011;54537;47.972;11.662;2023-10-19T12:24:27;3.53;;;1.40;;
66437;SDS011;54537;47.972;11.662;2023-10-19T12:26:54;3.30;;;1.10;;
66437;SDS011;54537;47.972;11.662;2023-10-19T12:29:21;3.03;;;1.30;;
66437;SDS011;54537;47.972;11.662;2023-10-19T12:31:47;3.15;;;1.30;;
66437;SDS011;54537;47.972;11.662;2023-10-19T12:34:14;3.58;;;1.40;;
66437;SDS011;54537;47.972;11.662;2023-10-19T12:36:41;3.25;;;1.48;;
66437;SDS011;54537;47.972;11.662;2023-10-19T12:39:11;6.30;;;1.27;;
66437;SDS011;54537;47.972;11.662;2023-10-19T12:42:00;2.15;;;1.23;;
66437;SDS011;54537;47.972;11.662;2023-10-19T12:44:28;6.03;;;1.48;;
66437;SDS011;54537;47.972;11.662;2023-10-19T12:46:57;5.65;;;1.30;;
66437;SDS011;54537;47.972;11.662;2023-10-19T12:49:24;2.17;;;1.25;;
66437;SDS011;54537;47.972;11.662;2023-10-19T12:51:52;4.25;;;1.00;;
66437;SDS011;54537;47.972;11.662;2023-10-19T12:54:19;3.60;;;1.20;;
66437;SDS011;54537;47.972;11.662;2023-10-19T12:56:46;3.75;;;1.40;;
66437;SDS011;54537;47.972;11.662;2023-10-19T12:59:16;3.47;;;1.23;;
66437;SDS011;54537;47.972;11.662;2023-10-19T13:01:44;5.57;;;1.73;;
66437;SDS011;54537;47.972;11.662;2023-10-19T13:04:13;3.42;;;1.45;;
66437;SDS011;54537;47.972;11.662;2023-10-19T13:06:41;4.97;;;1.80;;
66437;SDS011;54537;47.972;11.662;2023-10-19T13:09:08;5.68;;;1.75;;
66437;SDS011;54537;47.972;11.662;2023-10-19T13:11:36;4.28;;;1.77;;
66437;SDS011;54537;47.972;11.662;2023-10-19T13:14:03;4.18;;;2.03;;
66437;SDS011;54537;47.972;11.662;2023-10-19T13:16:32;5.85;;;1.63;;
66437;SDS011;54537;47.972;11.662;2023-10-19T13:18:59;3.55;;;1.50;;
66437;SDS011;54537;47.972;11.662;2023-10-19T13:21:33;5.07;;;1.55;;
66437;SDS011;54537;47.972;11.662;2023-10-19T13:24:00;5.68;;;1.73;;
66437;SDS011;54537;47.972;11.662;2023-10-19T13:26:27;5.05;;;1.90;;
66437;SDS011;54537;47.972;11.662;2023-10-19T13:28:53;6.28;;;1.90;;
66437;SDS011;54537;47.972;11.662;2023-10-19T13:31:21;4.40;;;1.50;;
66437;SDS011;54537;47.972;11.662;2023-10-19T13:33:49;4.43;;;1.80;;
66437;SDS011;54537;47.972;11.662;2023-10-19T13:36:15;5.50;;;1.73;;
66437;SDS011;54537;47.972;11.662;2023-10-19T13:38:42;3.55;;;1.55;;
66437;SDS011;54537;47.972;11.662;2023-10-19T13:41:08;5.55;;;1.88;;
66437;SDS011;54537;47.972;11.662;2023-10-19T13:43:36;4.40;;;1.85;;
66437;SDS011;54537;47.972;11.662;2023-10-19T13:46:03;4.35;;;1.92;;
66437;SDS011;54537;47.972;11.662;2023-10-19T13:48:30;5.72;;;2.17;;
66437;SDS011;54537;47.972;11.662;2023-10-19T13:50:58;4.88;;;1.90;;
66437;SDS011;54537;47.972;11.662;2023-10-19T13:53:30;3.78;;;1.60;;
66437;SDS011;54537;47.972;11.662;2023-10-19T13:55:57;4.88;;;1.63;;
66437;SDS011;54537;47.972;11.662;2023-10-19T13:58:24;7.15;;;1.73;;
66437;SDS011;54537;47.972;11.662;2023-10-19T14:00:50;4.30;;;1.70;;
66437;SDS011;54537;47.972;11.662;2023-10-19T14:03:17;4.55;;;1.90;;
66437;SDS011;54537;47.972;11.662;2023-10-19T14:05:44;4.18;;;1.90;;
66437;SDS011;54537;47.972;11.662;2023-10-19T14:08:15;6.00;;;2.60;;
66437;SDS011;54537;47.972;11.662;2023-10-19T14:10:42;4.72;;;2.08;;
66437;SDS011;54537;47.972;11.662;2023-10-19T14:13:09;5.55;;;2.30;;
66437;SDS011;54537;47.972;11.662;2023-10-19T14:15:36;10.32;;;2.50;;
66437;SDS011;54537;47.972;11.662;2023-10-19T14:18:03;7.72;;;2.55;;
66437;SDS011;54537;47.972;11.662;2023-10-19T14:20:30;7.05;;;2.10;;
66437;SDS011;54537;47.972;11.662;2023-10-19T14:22:59;4.38;;;2.10;;
66437;SDS011;54537;47.972;11.662;2023-10-19T14:25:27;7.43;;;2.63;;
66437;SDS011;54537;47.972;11.662;2023-10-19T14:27:55;5.40;;;2.67;;
66437;SDS011;54537;47.972;11.662;2023-10-19T14:30:24;9.00;;;2.65;;
66437;SDS011;54537;47.972;11.662;2023-10-19T14:32:52;5.90;;;2.80;;
66437;SDS011;54537;47.972;11.662;2023-10-19T14:35:20;6.57;;;2.83;;
66437;SDS011;54537;47.972;11.662;2023-10-19T14:37:49;7.68;;;2.78;;
66437;SDS011;54537;47.972;11.662;2023-10-19T14:40:17;7.47;;;2.63;;